Terrace, Minnesota
Current Conditions -  °F | °C
As of 2:13 AM on Monday 24 Nov 2014 (Local Time) from KGHW Reporting Station
Clear Clear  
Wind Chill:   Ceiling: Unl
Heat Index: 19°   Visibility: 10mi
Dew Point: 18°   Wind: 23mph
Humidity: 93%   Direction: 310°NW
Pressure: 29.44"   Gusts: 29mph
Location:  45.6105°N, 95.373°W
Report Text: KGHW 240813Z AUTO 31020G25KT 10SM CLR M07/M08 A2944 RMK AO2
Loading
Personal Weather Stations






























Interactive Weather Map New forecast layout! Learn more

10-Day Weather Forecast

Advertisements
Track Severe Weather on mobile